createdAt,value
2023-03-10T00:00:08.092Z,0.17
2023-03-10T00:02:34.344Z,0.23
2023-03-10T00:05:00.723Z,0.16
2023-03-10T00:07:26.962Z,0.17
2023-03-10T00:09:53.172Z,0.23
2023-03-10T00:12:19.380Z,0.19
2023-03-10T00:14:45.587Z,0.24
2023-03-10T00:17:11.840Z,0.16
2023-03-10T00:19:38.048Z,0.14
2023-03-10T00:22:04.261Z,0.18
2023-03-10T00:24:30.510Z,0.15
2023-03-10T00:26:56.720Z,0.16
2023-03-10T00:29:22.933Z,0.12
2023-03-10T00:31:49.159Z,0.15
2023-03-10T00:34:15.368Z,0.18
2023-03-10T00:36:41.574Z,0.21
2023-03-10T00:39:10.070Z,0.17
2023-03-10T00:41:37.554Z,0.17
2023-03-10T00:44:03.785Z,0.11
2023-03-10T00:46:30.136Z,0.14
2023-03-10T00:48:56.424Z,0.13
2023-03-10T00:51:22.690Z,0.08
2023-03-10T00:53:49.083Z,0.07
2023-03-10T00:56:19.706Z,0.18
2023-03-10T00:58:45.967Z,0.20
2023-03-10T01:01:16.474Z,0.12
2023-03-10T01:03:42.794Z,0.16
2023-03-10T01:06:09.009Z,0.11
2023-03-10T01:08:35.236Z,0.06
2023-03-10T01:11:01.433Z,0.08
2023-03-10T01:13:27.652Z,0.06
2023-03-10T01:15:53.877Z,0.03
2023-03-10T01:18:21.596Z,0.07
2023-03-10T01:20:47.995Z,0.08
2023-03-10T01:23:21.644Z,0.03
2023-03-10T01:25:48.059Z,0.07
2023-03-10T01:28:14.371Z,0.11
2023-03-10T01:30:40.657Z,0.12
2023-03-10T01:33:07.028Z,-0.01
2023-03-10T01:35:33.279Z,0.06
2023-03-10T01:37:59.518Z,0.02
2023-03-10T01:40:25.787Z,0.03
2023-03-10T01:42:52.535Z,-0.01
2023-03-10T01:45:18.678Z,0.04
2023-03-10T01:47:44.903Z,0.06
2023-03-10T01:50:15.772Z,0.08
2023-03-10T01:52:42.894Z,0.09
2023-03-10T01:55:09.194Z,0.02
2023-03-10T01:57:37.208Z,0.04
2023-03-10T02:00:04.206Z,0.05
2023-03-10T02:02:31.118Z,0.14
2023-03-10T02:04:57.366Z,0.06
2023-03-10T02:07:24.953Z,0.10
2023-03-10T02:09:51.153Z,0.02
2023-03-10T02:12:17.485Z,0.10
2023-03-10T02:14:44.242Z,0.08
2023-03-10T02:17:11.526Z,0.08
2023-03-10T02:19:51.120Z,0.08
2023-03-10T02:22:17.395Z,0.07
2023-03-10T02:24:54.049Z,0.05
2023-03-10T02:27:27.339Z,0.07
2023-03-10T02:29:59.790Z,0.04
2023-03-10T02:32:26.749Z,0.05
2023-03-10T02:34:53.005Z,0.08
2023-03-10T02:37:20.088Z,0.11
2023-03-10T02:39:46.294Z,0.09
2023-03-10T02:42:12.496Z,0.08
2023-03-10T02:44:38.707Z,0.11
2023-03-10T02:47:04.947Z,0.08
2023-03-10T02:49:31.173Z,0.12
2023-03-10T02:51:57.370Z,0.13
2023-03-10T02:54:23.586Z,0.09
2023-03-10T02:56:49.778Z,0.11
2023-03-10T02:59:15.990Z,0.04
2023-03-10T03:01:42.203Z,0.05
2023-03-10T03:04:08.489Z,0.11
2023-03-10T03:06:34.764Z,0.09
2023-03-10T03:09:00.979Z,0.05
2023-03-10T03:11:27.295Z,0.07
2023-03-10T03:13:53.505Z,0.04
2023-03-10T03:16:19.781Z,0.07
2023-03-10T03:18:46.045Z,0.04
2023-03-10T03:21:13.203Z,0.02
2023-03-10T03:23:39.432Z,0.03
2023-03-10T03:26:06.028Z,0.06
2023-03-10T03:28:32.240Z,0.04
2023-03-10T03:30:58.440Z,0.04
2023-03-10T03:33:24.675Z,0.02
2023-03-10T03:35:50.909Z,0.03
2023-03-10T03:38:17.132Z,0.04
2023-03-10T03:40:43.335Z,0.00
2023-03-10T03:43:09.630Z,0.03
2023-03-10T03:45:35.864Z,-0.02
2023-03-10T03:48:02.070Z,-0.05
2023-03-10T03:50:28.284Z,-0.04
2023-03-10T03:52:54.489Z,-0.05
2023-03-10T03:55:20.722Z,-0.07
2023-03-10T03:57:46.952Z,-0.03
2023-03-10T04:00:14.873Z,-0.04
2023-03-10T04:02:41.186Z,-0.05
2023-03-10T04:05:07.488Z,-0.05
2023-03-10T04:07:33.719Z,-0.03
2023-03-10T04:10:00.644Z,-0.05
2023-03-10T04:12:28.568Z,-0.06
2023-03-10T04:14:54.795Z,-0.14
2023-03-10T04:17:20.988Z,-0.07
2023-03-10T04:19:54.209Z,-0.11
2023-03-10T04:22:27.041Z,-0.16
2023-03-10T04:24:53.264Z,-0.14
2023-03-10T04:27:19.503Z,-0.14
2023-03-10T04:29:45.724Z,-0.16
2023-03-10T04:32:11.957Z,-0.16
2023-03-10T04:34:38.234Z,-0.15
2023-03-10T04:37:04.425Z,-0.15
2023-03-10T04:39:30.644Z,-0.17
2023-03-10T04:41:56.853Z,-0.22
2023-03-10T04:44:31.623Z,-0.20
2023-03-10T04:46:58.088Z,-0.21
2023-03-10T04:49:24.324Z,-0.22
2023-03-10T04:51:50.554Z,-0.21
2023-03-10T04:54:16.767Z,-0.19
2023-03-10T04:56:42.976Z,-0.23
2023-03-10T04:59:09.189Z,-0.24
2023-03-10T05:01:35.498Z,-0.25
2023-03-10T05:04:02.002Z,-0.26
2023-03-10T05:06:28.256Z,-0.28
2023-03-10T05:08:54.480Z,-0.31
2023-03-10T05:11:20.690Z,-0.24
2023-03-10T05:13:46.946Z,-0.27
2023-03-10T05:16:17.824Z,-0.26
2023-03-10T05:18:44.099Z,-0.30
2023-03-10T05:21:10.322Z,-0.32
2023-03-10T05:23:36.532Z,-0.30
2023-03-10T05:26:03.744Z,-0.30
2023-03-10T05:28:29.951Z,-0.30
2023-03-10T05:30:56.183Z,-0.34
2023-03-10T05:33:22.391Z,-0.30
2023-03-10T05:35:48.641Z,-0.32
2023-03-10T05:38:14.892Z,-0.28
2023-03-10T05:40:41.179Z,-0.32
2023-03-10T05:43:07.374Z,-0.38
2023-03-10T05:45:33.586Z,-0.38
2023-03-10T05:47:59.787Z,-0.38
2023-03-10T05:50:26.009Z,-0.34
2023-03-10T05:52:52.219Z,-0.36
2023-03-10T05:55:18.906Z,-0.32
2023-03-10T05:57:45.161Z,-0.32
2023-03-10T06:00:12.699Z,-0.36
2023-03-10T06:02:38.910Z,-0.32
2023-03-10T06:05:05.796Z,-0.33
2023-03-10T06:07:32.176Z,-0.36
2023-03-10T06:09:58.424Z,-0.36
2023-03-10T06:12:24.632Z,-0.35
2023-03-10T06:14:50.868Z,-0.32
2023-03-10T06:17:19.427Z,-0.33
2023-03-10T06:19:45.982Z,-0.29
2023-03-10T06:22:12.180Z,-0.29
2023-03-10T06:24:38.393Z,-0.26
2023-03-10T06:27:04.721Z,-0.23
2023-03-10T06:29:30.941Z,-0.25
2023-03-10T06:31:57.210Z,-0.23
2023-03-10T06:34:23.483Z,-0.21
2023-03-10T06:36:49.703Z,-0.20
2023-03-10T06:39:15.900Z,-0.21
2023-03-10T06:41:42.143Z,-0.16
2023-03-10T06:44:08.339Z,-0.17
2023-03-10T06:46:34.543Z,-0.10
2023-03-10T06:49:00.751Z,-0.13
2023-03-10T06:51:26.970Z,-0.10
2023-03-10T06:53:53.180Z,-0.10
2023-03-10T06:56:19.968Z,-0.06
2023-03-10T06:58:46.183Z,-0.02
2023-03-10T07:01:24.605Z,-0.07
2023-03-10T07:03:50.843Z,-0.06
2023-03-10T07:06:17.081Z,-0.02
2023-03-10T07:08:43.280Z,-0.01
2023-03-10T07:11:09.502Z,-0.03
2023-03-10T07:13:35.722Z,-0.02
2023-03-10T07:16:01.943Z,-0.01
2023-03-10T07:18:28.148Z,0.05
2023-03-10T07:20:54.371Z,0.01
2023-03-10T07:23:20.574Z,0.02
2023-03-10T07:25:46.790Z,0.08
2023-03-10T07:28:13.180Z,0.06
2023-03-10T07:30:39.546Z,0.05
2023-03-10T07:33:05.854Z,0.09
2023-03-10T07:35:33.556Z,0.08
2023-03-10T07:38:00.974Z,0.15
2023-03-10T07:40:27.193Z,0.18
2023-03-10T07:42:53.536Z,0.22
2023-03-10T07:45:19.750Z,0.28
2023-03-10T07:47:45.960Z,0.31
2023-03-10T07:50:12.168Z,0.31
2023-03-10T07:52:38.475Z,0.25
2023-03-10T07:55:04.832Z,0.31
2023-03-10T07:57:31.032Z,0.36
2023-03-10T07:59:57.246Z,0.44
2023-03-10T08:02:23.457Z,0.50
2023-03-10T08:04:49.685Z,0.47
2023-03-10T08:07:15.898Z,0.52
2023-03-10T08:09:42.103Z,0.59
2023-03-10T08:12:08.483Z,0.60
2023-03-10T08:14:34.775Z,0.63
2023-03-10T08:17:01.008Z,0.62
2023-03-10T08:19:27.221Z,0.66
2023-03-10T08:21:56.701Z,0.69
2023-03-10T08:24:23.268Z,0.74
2023-03-10T08:26:49.479Z,0.64
2023-03-10T08:29:15.701Z,0.68
2023-03-10T08:31:41.930Z,0.68
2023-03-10T08:34:08.134Z,0.74
2023-03-10T08:36:34.340Z,0.68
2023-03-10T08:39:00.571Z,0.71
2023-03-10T08:41:27.968Z,0.77
2023-03-10T08:43:54.384Z,0.82
2023-03-10T08:46:20.853Z,0.79
2023-03-10T08:48:47.611Z,0.79
2023-03-10T08:51:16.016Z,0.82
2023-03-10T08:53:42.733Z,0.74
2023-03-10T08:56:08.946Z,0.78
2023-03-10T08:58:35.156Z,0.78
2023-03-10T09:01:01.381Z,0.76
2023-03-10T09:03:30.206Z,0.81
2023-03-10T09:05:57.624Z,0.81
2023-03-10T09:08:25.140Z,0.82
2023-03-10T09:10:53.250Z,0.81
2023-03-10T09:13:19.443Z,0.93
2023-03-10T09:15:45.665Z,0.91
2023-03-10T09:18:12.343Z,1.00
2023-03-10T09:20:39.011Z,0.96
2023-03-10T09:23:05.369Z,0.99
2023-03-10T09:25:31.730Z,0.98
2023-03-10T09:27:57.999Z,1.03
2023-03-10T09:30:24.298Z,1.03
2023-03-10T09:32:50.638Z,1.03
2023-03-10T09:35:16.905Z,1.07
2023-03-10T09:37:43.123Z,1.19
2023-03-10T09:40:11.565Z,1.15
2023-03-10T09:42:41.116Z,1.18
2023-03-10T09:45:10.441Z,1.14
2023-03-10T09:47:55.389Z,1.11
2023-03-10T09:50:56.922Z,1.12
2023-03-10T09:53:28.475Z,1.21
2023-03-10T09:55:54.699Z,1.12
2023-03-10T09:58:27.136Z,1.09
2023-03-10T10:00:53.416Z,1.18
2023-03-10T10:03:23.572Z,1.27
2023-03-10T10:05:50.468Z,1.27
2023-03-10T10:08:26.066Z,1.29
2023-03-10T10:10:54.590Z,1.32
2023-03-10T10:13:20.915Z,1.31
2023-03-10T10:15:51.234Z,1.33
2023-03-10T10:18:38.137Z,1.23
2023-03-10T10:21:14.339Z,1.29
2023-03-10T10:23:42.771Z,1.35
2023-03-10T10:26:13.391Z,1.33
2023-03-10T10:28:43.189Z,1.33
2023-03-10T10:31:16.365Z,1.33
2023-03-10T10:33:51.715Z,1.35
2023-03-10T10:36:18.998Z,1.42
2023-03-10T10:38:52.077Z,1.48
2023-03-10T10:41:19.189Z,1.52
2023-03-10T10:43:45.549Z,1.44
2023-03-10T10:46:12.573Z,1.43
2023-03-10T10:48:42.791Z,1.46
2023-03-10T10:51:19.414Z,1.37
2023-03-10T10:53:45.972Z,1.41
2023-03-10T10:56:13.107Z,1.34
2023-03-10T10:58:39.978Z,1.46
2023-03-10T11:01:15.799Z,1.43
2023-03-10T11:03:45.649Z,1.39
2023-03-10T11:06:12.740Z,1.40
2023-03-10T11:08:38.993Z,1.37
2023-03-10T11:11:14.392Z,1.31
2023-03-10T11:13:46.477Z,1.40
2023-03-10T11:16:16.755Z,1.41
2023-03-10T11:21:28.464Z,1.38
2023-03-10T11:23:58.392Z,1.32
2023-03-10T11:27:00.311Z,1.37
2023-03-10T11:29:26.545Z,1.39
2023-03-10T11:31:55.551Z,1.41
2023-03-10T11:34:24.088Z,1.38
2023-03-10T11:37:12.484Z,1.33
2023-03-10T11:39:43.395Z,1.39
2023-03-10T11:42:09.625Z,1.41
2023-03-10T11:44:41.736Z,1.41
2023-03-10T11:50:24.780Z,1.41
2023-03-10T11:52:53.042Z,1.33
2023-03-10T11:55:21.029Z,1.34
2023-03-10T11:57:50.466Z,1.30
2023-03-10T12:00:18.676Z,1.32
2023-03-10T12:02:51.029Z,1.29
2023-03-10T12:05:18.378Z,1.30
2023-03-10T12:07:45.049Z,1.24
2023-03-10T12:10:11.224Z,1.21
2023-03-10T12:12:38.215Z,1.23
2023-03-10T12:15:05.765Z,1.18
2023-03-10T12:17:31.953Z,1.19
2023-03-10T12:20:10.336Z,1.20
2023-03-10T12:22:37.252Z,1.15
2023-03-10T12:25:03.603Z,1.20
2023-03-10T12:27:31.692Z,1.12
2023-03-10T12:29:57.947Z,1.19
2023-03-10T12:32:42.507Z,1.14
2023-03-10T12:35:22.074Z,1.11
2023-03-10T12:37:48.302Z,1.14
2023-03-10T12:40:43.590Z,1.17
2023-03-10T12:43:28.513Z,1.11
2023-03-10T12:45:54.722Z,1.13
2023-03-10T12:48:20.919Z,1.04
2023-03-10T12:50:59.743Z,1.08
2023-03-10T12:53:25.925Z,1.04
2023-03-10T12:56:10.698Z,1.11
2023-03-10T12:58:36.910Z,1.09
2023-03-10T13:01:04.094Z,1.13
2023-03-10T13:03:31.249Z,1.11
2023-03-10T13:05:58.664Z,1.14
2023-03-10T13:08:26.038Z,1.09
2023-03-10T13:10:52.452Z,1.05
2023-03-10T13:13:18.662Z,1.03
2023-03-10T13:15:45.763Z,1.03
2023-03-10T13:18:15.052Z,1.02
2023-03-10T13:20:41.254Z,1.02
2023-03-10T13:23:14.339Z,1.03
2023-03-10T13:25:50.492Z,1.03
2023-03-10T13:28:16.699Z,1.01
2023-03-10T13:30:42.906Z,1.02
2023-03-10T13:33:19.258Z,1.12
2023-03-10T13:35:45.473Z,1.20
2023-03-10T13:38:15.677Z,1.18
2023-03-10T13:40:42.707Z,1.23
2023-03-10T13:43:18.723Z,1.19
2023-03-10T13:45:47.635Z,1.14
2023-03-10T13:48:13.885Z,1.15
2023-03-10T13:50:40.094Z,1.15
2023-03-10T13:53:06.315Z,1.18
2023-03-10T13:55:38.458Z,1.20
2023-03-10T13:58:04.722Z,1.14
2023-03-10T14:00:30.939Z,1.15
2023-03-10T14:02:57.186Z,1.20
2023-03-10T14:05:40.010Z,1.18
2023-03-10T14:08:06.373Z,1.19
2023-03-10T14:10:32.681Z,1.16
2023-03-10T14:12:58.892Z,1.13
2023-03-10T14:15:29.273Z,1.12
2023-03-10T14:18:07.663Z,1.12
2023-03-10T14:20:34.663Z,1.09
2023-03-10T14:23:03.576Z,1.05
2023-03-10T14:25:29.781Z,1.01
2023-03-10T14:28:00.141Z,1.00
2023-03-10T14:30:27.265Z,0.94
2023-03-10T14:32:54.054Z,0.94
2023-03-10T14:35:20.645Z,0.96
2023-03-10T14:37:47.511Z,0.95
2023-03-10T14:40:13.727Z,0.90
2023-03-10T14:42:39.935Z,0.93
2023-03-10T14:45:18.375Z,0.95
2023-03-10T14:47:44.804Z,0.93
2023-03-10T14:50:14.579Z,0.97
2023-03-10T14:52:40.806Z,0.96
2023-03-10T14:55:08.544Z,0.94
2023-03-10T14:57:34.759Z,0.94
2023-03-10T15:00:00.964Z,0.90
2023-03-10T15:02:27.177Z,0.99
2023-03-10T15:04:53.458Z,0.97
2023-03-10T15:07:19.721Z,0.98
2023-03-10T15:09:45.968Z,0.93
2023-03-10T15:12:12.890Z,0.88
2023-03-10T15:14:39.167Z,0.92
2023-03-10T15:17:05.358Z,0.94
2023-03-10T15:19:31.573Z,0.99
2023-03-10T15:21:57.817Z,0.98
2023-03-10T15:24:24.055Z,0.99
2023-03-10T15:26:50.479Z,0.94
2023-03-10T15:29:17.179Z,0.95
2023-03-10T15:31:43.466Z,1.08
2023-03-10T15:34:09.737Z,0.96
2023-03-10T15:36:36.227Z,0.96
2023-03-10T15:39:02.719Z,0.92
2023-03-10T15:41:28.986Z,0.93
2023-03-10T15:47:14.320Z,0.85
2023-03-10T15:49:42.683Z,0.89
2023-03-10T15:58:10.623Z,0.86
2023-03-10T16:00:39.262Z,0.76
2023-03-10T16:06:19.959Z,0.76
2023-03-10T16:08:53.221Z,0.71
2023-03-10T16:17:31.580Z,0.71
2023-03-10T16:23:09.422Z,0.66
2023-03-10T16:25:35.694Z,0.72
2023-03-10T16:28:10.570Z,0.67
2023-03-10T16:45:16.699Z,0.70
2023-03-10T16:47:43.292Z,0.65
2023-03-10T16:50:10.185Z,0.66
2023-03-10T16:52:38.713Z,0.63
2023-03-10T16:55:05.195Z,0.67
2023-03-10T16:57:31.408Z,0.70
2023-03-10T16:59:57.621Z,0.66
2023-03-10T17:02:26.528Z,0.65
2023-03-10T17:04:52.735Z,0.63
2023-03-10T17:07:19.067Z,0.59
2023-03-10T17:09:45.325Z,0.59
2023-03-10T17:12:11.521Z,0.60
2023-03-10T17:14:37.743Z,0.57
2023-03-10T17:17:05.862Z,0.60
2023-03-10T17:19:33.581Z,0.59
2023-03-10T17:21:59.802Z,0.62
2023-03-10T17:24:26.332Z,0.57
2023-03-10T17:26:52.533Z,0.58
2023-03-10T17:29:18.746Z,0.57
2023-03-10T17:31:44.973Z,0.56
2023-03-10T17:34:11.943Z,0.54
2023-03-10T17:36:41.243Z,0.55
2023-03-10T17:39:07.534Z,0.64
2023-03-10T17:41:34.301Z,0.56
2023-03-10T17:44:00.527Z,0.54
2023-03-10T17:46:28.303Z,0.57
2023-03-10T17:48:54.815Z,0.57
2023-03-10T17:51:22.123Z,0.52
2023-03-10T17:53:48.340Z,0.56
2023-03-10T17:56:14.872Z,0.53
2023-03-10T17:58:41.081Z,0.52
2023-03-10T18:01:13.811Z,0.50
2023-03-10T18:03:40.130Z,0.50
2023-03-10T18:06:11.545Z,0.48
2023-03-10T18:08:37.765Z,0.51
2023-03-10T18:11:04.313Z,0.50
2023-03-10T18:13:30.657Z,0.51
2023-03-10T18:15:56.945Z,0.50
2023-03-10T18:18:23.230Z,0.55
2023-03-10T18:20:49.450Z,0.52
2023-03-10T18:23:15.699Z,0.52
2023-03-10T18:25:41.920Z,0.53
2023-03-10T18:28:08.119Z,0.49
2023-03-10T18:30:34.375Z,0.47
2023-03-10T18:33:00.606Z,0.49
2023-03-10T18:35:26.816Z,0.54
2023-03-10T18:37:53.026Z,0.50
2023-03-10T18:40:19.227Z,0.52
2023-03-10T18:42:45.438Z,0.50
2023-03-10T18:45:13.723Z,0.48
2023-03-10T18:47:40.002Z,0.54
2023-03-10T18:50:08.861Z,0.52
2023-03-10T18:52:43.473Z,0.50
2023-03-10T18:55:10.737Z,0.54
2023-03-10T18:57:36.945Z,0.51
2023-03-10T19:00:04.267Z,0.53
2023-03-10T19:02:30.530Z,0.54
2023-03-10T19:04:56.771Z,0.51
2023-03-10T19:07:22.998Z,0.52
2023-03-10T19:09:52.232Z,0.49
2023-03-10T19:12:18.452Z,0.50
2023-03-10T19:14:44.669Z,0.50
2023-03-10T19:17:10.870Z,0.56
2023-03-10T19:19:40.066Z,0.52
2023-03-10T19:22:06.336Z,0.54
2023-03-10T19:24:32.550Z,0.51
2023-03-10T19:26:58.806Z,0.53
2023-03-10T19:29:25.092Z,0.55
2023-03-10T19:31:51.573Z,0.57
2023-03-10T19:34:17.768Z,0.59
2023-03-10T19:36:43.973Z,0.55
2023-03-10T19:39:10.174Z,0.56
2023-03-10T19:41:36.384Z,0.56
2023-03-10T19:44:02.581Z,0.57
2023-03-10T19:46:28.863Z,0.56
2023-03-10T19:48:55.084Z,0.58
2023-03-10T19:51:22.260Z,0.62
2023-03-10T19:53:48.512Z,0.57
2023-03-10T19:56:15.796Z,0.56
2023-03-10T19:58:41.995Z,0.56
2023-03-10T20:01:14.933Z,0.60
2023-03-10T20:03:41.364Z,0.59
2023-03-10T20:06:07.601Z,0.66
2023-03-10T20:08:33.803Z,0.59
2023-03-10T20:11:00.265Z,0.57
2023-03-10T20:13:26.481Z,0.61
2023-03-10T20:15:52.694Z,0.66
2023-03-10T20:18:18.921Z,0.65
2023-03-10T20:20:45.109Z,0.63
2023-03-10T20:23:11.314Z,0.65
2023-03-10T20:25:37.579Z,0.71
2023-03-10T20:28:03.800Z,0.75
2023-03-10T20:30:30.123Z,0.77
2023-03-10T20:32:56.636Z,0.78
2023-03-10T20:35:22.977Z,0.82
2023-03-10T20:37:49.208Z,0.84
2023-03-10T20:40:19.231Z,0.87
2023-03-10T20:42:45.462Z,0.87
2023-03-10T20:45:11.667Z,0.90
2023-03-10T20:47:37.900Z,0.96
2023-03-10T20:50:05.336Z,0.96
2023-03-10T20:52:34.875Z,0.97
2023-03-10T20:55:01.439Z,0.95
2023-03-10T20:57:27.674Z,0.95
2023-03-10T20:59:53.874Z,1.00
2023-03-10T21:02:20.085Z,1.00
2023-03-10T21:04:46.307Z,0.97
2023-03-10T21:07:12.546Z,1.00
2023-03-10T21:09:38.751Z,1.01
2023-03-10T21:12:04.993Z,0.99
2023-03-10T21:14:31.197Z,1.03
2023-03-10T21:16:57.546Z,0.99
2023-03-10T21:19:23.777Z,1.02
2023-03-10T21:21:49.976Z,0.99
2023-03-10T21:24:16.194Z,1.02
2023-03-10T21:26:42.405Z,1.01
2023-03-10T21:29:08.607Z,1.00
2023-03-10T21:31:34.823Z,1.02
2023-03-10T21:34:01.049Z,1.00
2023-03-10T21:36:30.348Z,0.99
2023-03-10T21:38:56.955Z,0.96
2023-03-10T21:41:26.868Z,0.95
2023-03-10T21:43:53.558Z,0.96
2023-03-10T21:46:19.873Z,0.94
2023-03-10T21:48:46.156Z,0.90
2023-03-10T21:51:13.008Z,0.92
2023-03-10T21:53:39.213Z,0.94
2023-03-10T21:56:05.623Z,0.93
2023-03-10T21:58:31.831Z,0.91
2023-03-10T22:00:58.119Z,0.89
2023-03-10T22:03:24.482Z,0.89
2023-03-10T22:05:50.710Z,0.89
2023-03-10T22:08:16.909Z,0.90
2023-03-10T22:10:43.133Z,0.86
2023-03-10T22:13:09.344Z,0.84
2023-03-10T22:15:35.555Z,0.85
2023-03-10T22:18:01.772Z,0.89
2023-03-10T22:20:28.053Z,0.90
2023-03-10T22:22:54.336Z,0.90
2023-03-10T22:25:20.537Z,0.93
2023-03-10T22:27:50.679Z,0.94
2023-03-10T22:30:17.052Z,0.96
2023-03-10T22:32:43.380Z,0.95
2023-03-10T22:35:09.623Z,0.96
2023-03-10T22:37:36.454Z,1.01
2023-03-10T22:40:02.669Z,0.98
2023-03-10T22:44:54.284Z,1.05
2023-03-10T22:47:20.513Z,1.09
2023-03-10T22:49:46.722Z,1.10
2023-03-10T22:52:12.926Z,1.09
2023-03-10T22:54:39.188Z,1.10
2023-03-10T22:57:05.557Z,1.11
2023-03-10T22:59:31.793Z,1.09
2023-03-10T23:01:58.077Z,1.17
2023-03-10T23:04:24.305Z,1.14
2023-03-10T23:06:50.502Z,1.17
2023-03-10T23:09:16.731Z,1.19
2023-03-10T23:11:42.932Z,1.26
2023-03-10T23:14:09.145Z,1.31
2023-03-10T23:16:35.395Z,1.23
2023-03-10T23:19:02.557Z,1.24
2023-03-10T23:21:28.847Z,1.25
2023-03-10T23:23:55.066Z,1.16
2023-03-10T23:26:21.264Z,1.13
2023-03-10T23:28:47.477Z,1.16
2023-03-10T23:31:13.705Z,1.08
2023-03-10T23:33:39.944Z,1.08
2023-03-10T23:36:06.316Z,1.07
2023-03-10T23:38:32.551Z,1.02
2023-03-10T23:40:58.763Z,1.00
2023-03-10T23:43:25.891Z,0.96
2023-03-10T23:45:52.122Z,0.95
2023-03-10T23:48:18.355Z,0.94
2023-03-10T23:50:44.859Z,0.90
2023-03-10T23:53:11.706Z,0.89
2023-03-10T23:55:38.902Z,0.83
2023-03-10T23:58:05.215Z,0.80
